sensor_id;sensor_type;location;lat;lon;timestamp;pressure;altitude;pressure_sealevel;temperature;humidity
63006;BME280;53704;52.532;6.426;2023-06-10T00:02:06;101574.72;;;17.79;97.07
63006;BME280;53704;52.532;6.426;2023-06-10T00:04:32;101575.19;;;17.83;97.58
63006;BME280;53704;52.532;6.426;2023-06-10T00:06:58;101575.50;;;17.73;98.51
63006;BME280;53704;52.532;6.426;2023-06-10T00:09:23;101577.75;;;17.69;98.59
63006;BME280;53704;52.532;6.426;2023-06-10T00:11:49;101577.84;;;17.76;99.82
63006;BME280;53704;52.532;6.426;2023-06-10T00:14:14;101580.78;;;17.60;99.63
63006;BME280;53704;52.532;6.426;2023-06-10T00:16:40;101580.78;;;17.60;99.14
63006;BME280;53704;52.532;6.426;2023-06-10T00:19:06;101572.75;;;17.51;99.84
63006;BME280;53704;52.532;6.426;2023-06-10T00:21:32;101575.28;;;17.53;99.13
63006;BME280;53704;52.532;6.426;2023-06-10T00:24:09;101578.63;;;17.55;100.00
63006;BME280;53704;52.532;6.426;2023-06-10T00:26:39;101574.19;;;17.47;99.99
63006;BME280;53704;52.532;6.426;2023-06-10T00:29:05;101575.19;;;17.46;100.00
63006;BME280;53704;52.532;6.426;2023-06-10T00:31:31;101579.13;;;17.44;100.00
63006;BME280;53704;52.532;6.426;2023-06-10T00:33:56;101587.34;;;17.29;100.00
63006;BME280;53704;52.532;6.426;2023-06-10T00:36:24;101583.75;;;17.43;99.88
63006;BME280;53704;52.532;6.426;2023-06-10T00:38:49;101577.16;;;17.38;99.51
63006;BME280;53704;52.532;6.426;2023-06-10T00:41:15;101579.00;;;17.30;99.83
63006;BME280;53704;52.532;6.426;2023-06-10T00:43:40;101585.44;;;17.29;100.00
63006;BME280;53704;52.532;6.426;2023-06-10T00:46:06;101584.06;;;17.33;100.00
63006;BME280;53704;52.532;6.426;2023-06-10T00:48:32;101580.59;;;17.10;100.00
63006;BME280;53704;52.532;6.426;2023-06-10T00:50:59;101584.63;;;17.14;100.00
63006;BME280;53704;52.532;6.426;2023-06-10T00:53:25;101587.06;;;17.09;100.00
63006;BME280;53704;52.532;6.426;2023-06-10T00:55:51;101596.94;;;17.10;100.00
63006;BME280;53704;52.532;6.426;2023-06-10T00:58:17;101591.50;;;17.10;100.00
63006;BME280;53704;52.532;6.426;2023-06-10T01:00:43;101593.94;;;17.05;100.00
63006;BME280;53704;52.532;6.426;2023-06-10T01:03:10;101583.31;;;17.10;100.00
63006;BME280;53704;52.532;6.426;2023-06-10T01:05:37;101592.34;;;16.95;100.00
63006;BME280;53704;52.532;6.426;2023-06-10T01:08:09;101589.25;;;16.98;100.00
63006;BME280;53704;52.532;6.426;2023-06-10T01:10:42;101585.38;;;16.78;100.00
63006;BME280;53704;52.532;6.426;2023-06-10T01:13:13;101587.13;;;16.71;100.00
63006;BME280;53704;52.532;6.426;2023-06-10T01:15:39;101590.06;;;16.84;100.00
63006;BME280;53704;52.532;6.426;2023-06-10T01:18:09;101593.38;;;16.71;100.00
63006;BME280;53704;52.532;6.426;2023-06-10T01:20:38;101592.19;;;16.74;100.00
63006;BME280;53704;52.532;6.426;2023-06-10T01:23:06;101594.25;;;16.72;100.00
63006;BME280;53704;52.532;6.426;2023-06-10T01:25:32;101584.22;;;16.72;100.00
63006;BME280;53704;52.532;6.426;2023-06-10T01:28:14;101598.72;;;16.64;100.00
63006;BME280;53704;52.532;6.426;2023-06-10T01:33:28;101602.78;;;16.83;100.00
63006;BME280;53704;52.532;6.426;2023-06-10T01:35:56;101599.47;;;16.58;100.00
63006;BME280;53704;52.532;6.426;2023-06-10T01:38:23;101601.47;;;16.64;100.00
63006;BME280;53704;52.532;6.426;2023-06-10T01:40:52;101602.19;;;16.58;100.00
63006;BME280;53704;52.532;6.426;2023-06-10T01:43:20;101601.91;;;16.68;100.00
63006;BME280;53704;52.532;6.426;2023-06-10T01:45:45;101606.34;;;16.69;100.00
63006;BME280;53704;52.532;6.426;2023-06-10T01:48:11;101609.44;;;16.28;100.00
63006;BME280;53704;52.532;6.426;2023-06-10T01:50:36;101611.72;;;16.39;100.00
63006;BME280;53704;52.532;6.426;2023-06-10T01:53:03;101610.44;;;16.27;100.00
63006;BME280;53704;52.532;6.426;2023-06-10T01:55:28;101611.75;;;16.16;100.00
63006;BME280;53704;52.532;6.426;2023-06-10T01:57:54;101606.00;;;16.11;100.00
63006;BME280;53704;52.532;6.426;2023-06-10T02:00:19;101611.13;;;16.29;100.00
63006;BME280;53704;52.532;6.426;2023-06-10T02:02:45;101619.72;;;16.18;100.00
63006;BME280;53704;52.532;6.426;2023-06-10T02:05:10;101617.41;;;16.06;100.00
63006;BME280;53704;52.532;6.426;2023-06-10T02:07:36;101613.38;;;16.02;100.00
63006;BME280;53704;52.532;6.426;2023-06-10T02:10:01;101608.66;;;16.19;100.00
63006;BME280;53704;52.532;6.426;2023-06-10T02:12:26;101616.91;;;16.03;100.00
63006;BME280;53704;52.532;6.426;2023-06-10T02:14:52;101612.84;;;16.07;100.00
63006;BME280;53704;52.532;6.426;2023-06-10T02:17:17;101611.97;;;16.06;100.00
63006;BME280;53704;52.532;6.426;2023-06-10T02:19:43;101619.34;;;15.98;100.00
63006;BME280;53704;52.532;6.426;2023-06-10T02:22:09;101619.63;;;15.71;100.00
63006;BME280;53704;52.532;6.426;2023-06-10T02:24:37;101619.16;;;15.68;100.00
63006;BME280;53704;52.532;6.426;2023-06-10T02:27:04;101615.53;;;15.76;100.00
63006;BME280;53704;52.532;6.426;2023-06-10T02:29:33;101614.72;;;15.75;100.00
63006;BME280;53704;52.532;6.426;2023-06-10T02:31:59;101618.78;;;15.79;100.00
63006;BME280;53704;52.532;6.426;2023-06-10T02:34:24;101622.53;;;15.70;100.00
63006;BME280;53704;52.532;6.426;2023-06-10T02:36:50;101624.16;;;15.56;100.00
63006;BME280;53704;52.532;6.426;2023-06-10T02:39:16;101623.09;;;15.57;100.00
63006;BME280;53704;52.532;6.426;2023-06-10T02:41:42;101619.91;;;15.53;100.00
63006;BME280;53704;52.532;6.426;2023-06-10T02:44:07;101624.88;;;15.42;100.00
63006;BME280;53704;52.532;6.426;2023-06-10T02:46:32;101623.97;;;15.58;100.00
63006;BME280;53704;52.532;6.426;2023-06-10T02:48:58;101620.13;;;15.44;100.00
63006;BME280;53704;52.532;6.426;2023-06-10T02:51:23;101616.72;;;15.42;100.00
63006;BME280;53704;52.532;6.426;2023-06-10T02:53:49;101624.63;;;15.60;100.00
63006;BME280;53704;52.532;6.426;2023-06-10T02:56:16;101634.53;;;15.44;100.00
63006;BME280;53704;52.532;6.426;2023-06-10T02:58:42;101630.28;;;15.50;100.00
63006;BME280;53704;52.532;6.426;2023-06-10T03:01:08;101620.00;;;15.29;100.00
63006;BME280;53704;52.532;6.426;2023-06-10T03:03:35;101623.41;;;15.23;100.00
63006;BME280;53704;52.532;6.426;2023-06-10T03:06:02;101621.53;;;15.31;100.00
63006;BME280;53704;52.532;6.426;2023-06-10T03:08:28;101625.44;;;15.29;100.00
63006;BME280;53704;52.532;6.426;2023-06-10T03:10:53;101634.25;;;15.23;100.00
63006;BME280;53704;52.532;6.426;2023-06-10T03:13:19;101629.75;;;15.15;100.00
63006;BME280;53704;52.532;6.426;2023-06-10T03:15:44;101633.44;;;15.22;100.00
63006;BME280;53704;52.532;6.426;2023-06-10T03:18:11;101643.81;;;15.10;100.00
63006;BME280;53704;52.532;6.426;2023-06-10T03:20:36;101640.59;;;15.15;100.00
63006;BME280;53704;52.532;6.426;2023-06-10T03:23:04;101643.13;;;15.16;100.00
63006;BME280;53704;52.532;6.426;2023-06-10T03:25:31;101628.88;;;15.14;100.00
63006;BME280;53704;52.532;6.426;2023-06-10T03:27:57;101638.75;;;15.07;100.00
63006;BME280;53704;52.532;6.426;2023-06-10T03:30:22;101633.63;;;15.12;100.00
63006;BME280;53704;52.532;6.426;2023-06-10T03:32:48;101638.06;;;15.13;100.00
63006;BME280;53704;52.532;6.426;2023-06-10T03:35:14;101640.41;;;15.08;100.00
63006;BME280;53704;52.532;6.426;2023-06-10T03:37:40;101635.84;;;15.09;100.00
63006;BME280;53704;52.532;6.426;2023-06-10T03:40:07;101639.59;;;15.08;100.00
63006;BME280;53704;52.532;6.426;2023-06-10T03:42:34;101626.88;;;15.00;100.00
63006;BME280;53704;52.532;6.426;2023-06-10T03:45:00;101640.47;;;14.92;100.00
63006;BME280;53704;52.532;6.426;2023-06-10T03:47:25;101647.03;;;14.97;100.00
63006;BME280;53704;52.532;6.426;2023-06-10T03:49:51;101640.13;;;14.95;100.00
63006;BME280;53704;52.532;6.426;2023-06-10T03:52:17;101640.63;;;14.98;100.00
63006;BME280;53704;52.532;6.426;2023-06-10T03:54:42;101644.53;;;14.88;100.00
63006;BME280;53704;52.532;6.426;2023-06-10T03:57:08;101637.25;;;14.96;100.00
63006;BME280;53704;52.532;6.426;2023-06-10T03:59:33;101647.22;;;14.96;100.00
63006;BME280;53704;52.532;6.426;2023-06-10T04:01:59;101639.28;;;14.94;100.00
63006;BME280;53704;52.532;6.426;2023-06-10T04:04:25;101641.13;;;14.94;100.00
63006;BME280;53704;52.532;6.426;2023-06-10T04:06:50;101645.53;;;14.95;100.00
63006;BME280;53704;52.532;6.426;2023-06-10T04:09:16;101642.66;;;14.96;100.00
63006;BME280;53704;52.532;6.426;2023-06-10T04:11:42;101647.22;;;14.96;100.00
63006;BME280;53704;52.532;6.426;2023-06-10T04:14:08;101637.03;;;15.06;100.00
63006;BME280;53704;52.532;6.426;2023-06-10T04:16:33;101644.34;;;14.97;100.00
63006;BME280;53704;52.532;6.426;2023-06-10T04:19:00;101652.66;;;15.04;100.00
63006;BME280;53704;52.532;6.426;2023-06-10T04:21:26;101643.13;;;15.08;100.00
63006;BME280;53704;52.532;6.426;2023-06-10T04:23:51;101653.97;;;15.08;100.00
63006;BME280;53704;52.532;6.426;2023-06-10T04:26:17;101654.31;;;15.05;100.00
63006;BME280;53704;52.532;6.426;2023-06-10T04:28:43;101656.16;;;15.13;100.00
63006;BME280;53704;52.532;6.426;2023-06-10T04:31:09;101658.88;;;15.13;100.00
63006;BME280;53704;52.532;6.426;2023-06-10T04:33:35;101655.81;;;15.16;100.00
63006;BME280;53704;52.532;6.426;2023-06-10T04:36:01;101668.69;;;15.22;100.00
63006;BME280;53704;52.532;6.426;2023-06-10T04:38:26;101674.47;;;15.19;100.00
63006;BME280;53704;52.532;6.426;2023-06-10T04:40:52;101674.13;;;15.22;100.00
63006;BME280;53704;52.532;6.426;2023-06-10T04:43:17;101668.00;;;15.28;100.00
63006;BME280;53704;52.532;6.426;2023-06-10T04:45:43;101673.41;;;15.28;100.00
63006;BME280;53704;52.532;6.426;2023-06-10T04:48:10;101665.25;;;15.36;100.00
63006;BME280;53704;52.532;6.426;2023-06-10T04:50:36;101667.78;;;15.38;100.00
63006;BME280;53704;52.532;6.426;2023-06-10T04:53:02;101665.75;;;15.40;100.00
63006;BME280;53704;52.532;6.426;2023-06-10T04:55:28;101667.78;;;15.38;100.00
63006;BME280;53704;52.532;6.426;2023-06-10T04:57:53;101665.25;;;15.36;100.00
63006;BME280;53704;52.532;6.426;2023-06-10T05:00:19;101661.31;;;15.47;100.00
63006;BME280;53704;52.532;6.426;2023-06-10T05:02:44;101672.16;;;15.47;100.00
63006;BME280;53704;52.532;6.426;2023-06-10T05:05:10;101658.69;;;15.62;100.00
63006;BME280;53704;52.532;6.426;2023-06-10T05:07:36;101660.25;;;15.56;100.00
63006;BME280;53704;52.532;6.426;2023-06-10T05:10:02;101667.16;;;15.67;100.00
63006;BME280;53704;52.532;6.426;2023-06-10T05:12:28;101669.19;;;15.65;100.00
63006;BME280;53704;52.532;6.426;2023-06-10T05:14:53;101672.22;;;15.79;100.00
63006;BME280;53704;52.532;6.426;2023-06-10T05:17:19;101673.72;;;15.81;100.00
63006;BME280;53704;52.532;6.426;2023-06-10T05:19:44;101667.34;;;15.66;100.00
63006;BME280;53704;52.532;6.426;2023-06-10T05:22:10;101671.56;;;15.77;100.00
63006;BME280;53704;52.532;6.426;2023-06-10T05:24:35;101667.63;;;15.79;100.00
63006;BME280;53704;52.532;6.426;2023-06-10T05:27:01;101667.59;;;15.87;100.00
63006;BME280;53704;52.532;6.426;2023-06-10T05:29:27;101673.88;;;15.88;100.00
63006;BME280;53704;52.532;6.426;2023-06-10T05:31:53;101680.97;;;15.97;100.00
63006;BME280;53704;52.532;6.426;2023-06-10T05:34:18;101673.41;;;16.07;100.00
63006;BME280;53704;52.532;6.426;2023-06-10T05:36:44;101677.31;;;16.13;100.00
63006;BME280;53704;52.532;6.426;2023-06-10T05:39:10;101673.91;;;16.11;100.00
63006;BME280;53704;52.532;6.426;2023-06-10T05:41:35;101676.44;;;16.13;100.00
63006;BME280;53704;52.532;6.426;2023-06-10T05:44:01;101677.31;;;16.13;100.00
63006;BME280;53704;52.532;6.426;2023-06-10T05:46:26;101680.97;;;16.20;100.00
63006;BME280;53704;52.532;6.426;2023-06-10T05:48:52;101679.06;;;16.29;100.00
63006;BME280;53704;52.532;6.426;2023-06-10T05:51:17;101683.63;;;16.28;100.00
63006;BME280;53704;52.532;6.426;2023-06-10T05:53:43;101680.53;;;16.32;100.00
63006;BME280;53704;52.532;6.426;2023-06-10T05:56:08;101679.38;;;16.49;100.00
63006;BME280;53704;52.532;6.426;2023-06-10T05:58:34;101677.66;;;16.56;100.00
63006;BME280;53704;52.532;6.426;2023-06-10T06:00:59;101678.41;;;16.65;100.00
63006;BME280;53704;52.532;6.426;2023-06-10T06:03:25;101675.47;;;16.75;100.00
63006;BME280;53704;52.532;6.426;2023-06-10T06:05:50;101679.66;;;16.77;100.00
63006;BME280;53704;52.532;6.426;2023-06-10T06:08:16;101679.09;;;16.82;100.00
63006;BME280;53704;52.532;6.426;2023-06-10T06:10:45;101679.06;;;16.90;100.00
63006;BME280;53704;52.532;6.426;2023-06-10T06:13:10;101681.03;;;16.96;100.00
63006;BME280;53704;52.532;6.426;2023-06-10T06:15:36;101677.84;;;16.93;100.00
63006;BME280;53704;52.532;6.426;2023-06-10T06:18:01;101678.69;;;16.93;100.00
63006;BME280;53704;52.532;6.426;2023-06-10T06:20:27;101679.28;;;17.04;100.00
63006;BME280;53704;52.532;6.426;2023-06-10T06:22:52;101677.31;;;17.12;100.00
63006;BME280;53704;52.532;6.426;2023-06-10T06:25:17;101672.81;;;17.20;100.00
63006;BME280;53704;52.532;6.426;2023-06-10T06:27:43;101670.84;;;17.28;100.00
63006;BME280;53704;52.532;6.426;2023-06-10T06:30:09;101671.78;;;17.35;100.00
63006;BME280;53704;52.532;6.426;2023-06-10T06:32:34;101669.44;;;17.47;100.00
63006;BME280;53704;52.532;6.426;2023-06-10T06:34:59;101675.25;;;17.59;100.00
63006;BME280;53704;52.532;6.426;2023-06-10T06:37:25;101670.75;;;17.66;100.00
63006;BME280;53704;52.532;6.426;2023-06-10T06:39:51;101676.72;;;17.77;100.00
63006;BME280;53704;52.532;6.426;2023-06-10T06:42:18;101670.81;;;17.73;100.00
63006;BME280;53704;52.532;6.426;2023-06-10T06:44:44;101674.53;;;17.87;100.00
63006;BME280;53704;52.532;6.426;2023-06-10T06:47:09;101679.72;;;17.97;100.00
63006;BME280;53704;52.532;6.426;2023-06-10T06:49:35;101673.22;;;17.98;100.00
63006;BME280;53704;52.532;6.426;2023-06-10T06:52:01;101672.53;;;18.11;100.00
63006;BME280;53704;52.532;6.426;2023-06-10T06:54:26;101673.25;;;18.19;100.00
63006;BME280;53704;52.532;6.426;2023-06-10T06:56:52;101675.25;;;18.32;100.00
63006;BME280;53704;52.532;6.426;2023-06-10T06:59:17;101680.25;;;18.50;100.00
63006;BME280;53704;52.532;6.426;2023-06-10T07:01:45;101683.69;;;18.59;100.00
63006;BME280;53704;52.532;6.426;2023-06-10T07:04:10;101681.09;;;18.72;100.00
63006;BME280;53704;52.532;6.426;2023-06-10T07:06:36;101682.13;;;18.71;100.00
63006;BME280;53704;52.532;6.426;2023-06-10T07:09:01;101681.56;;;18.83;100.00
63006;BME280;53704;52.532;6.426;2023-06-10T07:11:27;101683.16;;;18.92;100.00
63006;BME280;53704;52.532;6.426;2023-06-10T07:13:52;101689.56;;;19.06;100.00
63006;BME280;53704;52.532;6.426;2023-06-10T07:16:17;101685.91;;;19.27;100.00
63006;BME280;53704;52.532;6.426;2023-06-10T07:18:45;101687.81;;;19.33;100.00
63006;BME280;53704;52.532;6.426;2023-06-10T07:21:11;101693.34;;;19.46;100.00
63006;BME280;53704;52.532;6.426;2023-06-10T07:23:36;101696.06;;;19.40;100.00
63006;BME280;53704;52.532;6.426;2023-06-10T07:26:02;101689.16;;;19.44;100.00
63006;BME280;53704;52.532;6.426;2023-06-10T07:28:27;101690.47;;;19.55;100.00
63006;BME280;53704;52.532;6.426;2023-06-10T07:30:53;101699.03;;;19.80;100.00
63006;BME280;53704;52.532;6.426;2023-06-10T07:33:18;101692.16;;;20.04;100.00
63006;BME280;53704;52.532;6.426;2023-06-10T07:35:44;101691.34;;;20.10;100.00
63006;BME280;53704;52.532;6.426;2023-06-10T07:38:09;101694.50;;;20.20;100.00
63006;BME280;53704;52.532;6.426;2023-06-10T07:40:35;101695.59;;;20.26;100.00
63006;BME280;53704;52.532;6.426;2023-06-10T07:43:00;101699.16;;;20.33;100.00
63006;BME280;53704;52.532;6.426;2023-06-10T07:45:26;101701.34;;;20.65;100.00
63006;BME280;53704;52.532;6.426;2023-06-10T07:47:51;101706.81;;;20.78;100.00
63006;BME280;53704;52.532;6.426;2023-06-10T07:50:17;101699.66;;;20.77;100.00
63006;BME280;53704;52.532;6.426;2023-06-10T07:52:42;101704.50;;;20.88;100.00
63006;BME280;53704;52.532;6.426;2023-06-10T07:55:08;101699.44;;;21.05;100.00
63006;BME280;53704;52.532;6.426;2023-06-10T07:57:33;101700.03;;;21.14;100.00
63006;BME280;53704;52.532;6.426;2023-06-10T08:00:02;101700.63;;;21.49;100.00
63006;BME280;53704;52.532;6.426;2023-06-10T08:02:29;101702.72;;;21.54;100.00
63006;BME280;53704;52.532;6.426;2023-06-10T08:04:55;101705.16;;;21.76;100.00
63006;BME280;53704;52.532;6.426;2023-06-10T08:07:20;101705.91;;;21.96;100.00
63006;BME280;53704;52.532;6.426;2023-06-10T08:09:47;101703.25;;;21.83;100.00
63006;BME280;53704;52.532;6.426;2023-06-10T08:12:13;101704.59;;;22.05;100.00
63006;BME280;53704;52.532;6.426;2023-06-10T08:14:39;101701.13;;;22.30;99.02
63006;BME280;53704;52.532;6.426;2023-06-10T08:17:04;101705.97;;;22.28;98.14
63006;BME280;53704;52.532;6.426;2023-06-10T08:19:31;101699.63;;;22.59;97.50
63006;BME280;53704;52.532;6.426;2023-06-10T08:21:57;101706.78;;;22.29;91.68
63006;BME280;53704;52.532;6.426;2023-06-10T08:24:22;101701.47;;;22.72;95.65
63006;BME280;53704;52.532;6.426;2023-06-10T08:26:48;101702.81;;;22.88;93.35
63006;BME280;53704;52.532;6.426;2023-06-10T08:29:13;101703.72;;;22.75;92.65
63006;BME280;53704;52.532;6.426;2023-06-10T08:31:43;101698.66;;;22.79;91.15
63006;BME280;53704;52.532;6.426;2023-06-10T08:34:09;101706.69;;;22.99;93.27
63006;BME280;53704;52.532;6.426;2023-06-10T08:36:35;101711.13;;;23.00;90.93
63006;BME280;53704;52.532;6.426;2023-06-10T08:39:01;101703.47;;;23.27;91.38
63006;BME280;53704;52.532;6.426;2023-06-10T08:41:28;101704.88;;;23.37;86.01
63006;BME280;53704;52.532;6.426;2023-06-10T08:44:12;101700.94;;;23.07;84.84
63006;BME280;53704;52.532;6.426;2023-06-10T08:46:45;101701.22;;;23.43;85.09
63006;BME280;53704;52.532;6.426;2023-06-10T08:49:18;101701.28;;;23.73;85.28
63006;BME280;53704;52.532;6.426;2023-06-10T08:51:50;101708.91;;;23.53;79.45
63006;BME280;53704;52.532;6.426;2023-06-10T08:54:20;101698.34;;;24.05;80.30
63006;BME280;53704;52.532;6.426;2023-06-10T08:56:49;101702.13;;;23.74;77.21
63006;BME280;53704;52.532;6.426;2023-06-10T08:59:18;101706.47;;;24.00;77.01
63006;BME280;53704;52.532;6.426;2023-06-10T09:01:45;101696.78;;;24.39;73.43
63006;BME280;53704;52.532;6.426;2023-06-10T09:04:11;101689.34;;;24.28;76.34
63006;BME280;53704;52.532;6.426;2023-06-10T09:06:37;101701.63;;;24.56;73.75
63006;BME280;53704;52.532;6.426;2023-06-10T09:09:05;101701.06;;;24.78;69.02
63006;BME280;53704;52.532;6.426;2023-06-10T09:11:31;101689.47;;;24.87;71.24
63006;BME280;53704;52.532;6.426;2023-06-10T09:13:57;101693.41;;;25.15;72.04
63006;BME280;53704;52.532;6.426;2023-06-10T09:16:26;101693.69;;;25.02;73.31
63006;BME280;53704;52.532;6.426;2023-06-10T09:18:52;101690.56;;;25.10;69.48
63006;BME280;53704;52.532;6.426;2023-06-10T09:21:23;101689.31;;;25.53;70.59
63006;BME280;53704;52.532;6.426;2023-06-10T09:23:49;101686.94;;;25.45;65.09
63006;BME280;53704;52.532;6.426;2023-06-10T09:26:15;101691.97;;;25.36;66.61
63006;BME280;53704;52.532;6.426;2023-06-10T09:28:50;101689.47;;;25.87;66.88
63006;BME280;53704;52.532;6.426;2023-06-10T09:31:16;101684.81;;;25.76;64.62
63006;BME280;53704;52.532;6.426;2023-06-10T09:33:44;101691.00;;;25.54;66.74
63006;BME280;53704;52.532;6.426;2023-06-10T09:36:10;101686.25;;;25.78;66.14
63006;BME280;53704;52.532;6.426;2023-06-10T09:38:36;101686.00;;;26.21;64.22
63006;BME280;53704;52.532;6.426;2023-06-10T09:41:03;101688.63;;;26.15;63.27
63006;BME280;53704;52.532;6.426;2023-06-10T09:43:43;101685.47;;;25.95;64.14
63006;BME280;53704;52.532;6.426;2023-06-10T09:46:19;101674.50;;;25.83;64.25
63006;BME280;53704;52.532;6.426;2023-06-10T09:48:47;101677.44;;;25.93;64.33
63006;BME280;53704;52.532;6.426;2023-06-10T09:51:15;101678.66;;;26.77;64.65
63006;BME280;53704;52.532;6.426;2023-06-10T09:53:48;101675.91;;;26.60;62.66
63006;BME280;53704;52.532;6.426;2023-06-10T09:56:15;101679.41;;;26.56;59.99
63006;BME280;53704;52.532;6.426;2023-06-10T09:58:40;101673.06;;;26.89;59.72
63006;BME280;53704;52.532;6.426;2023-06-10T10:01:10;101681.78;;;27.20;61.09
63006;BME280;53704;52.532;6.426;2023-06-10T10:03:54;101680.56;;;27.50;60.67
63006;BME280;53704;52.532;6.426;2023-06-10T10:06:20;101678.81;;;27.43;59.67
63006;BME280;53704;52.532;6.426;2023-06-10T10:08:47;101679.53;;;27.56;57.48
63006;BME280;53704;52.532;6.426;2023-06-10T10:11:16;101676.75;;;27.34;55.04
63006;BME280;53704;52.532;6.426;2023-06-10T10:13:42;101677.22;;;27.70;55.64
63006;BME280;53704;52.532;6.426;2023-06-10T10:16:11;101665.28;;;27.25;56.24
63006;BME280;53704;52.532;6.426;2023-06-10T10:18:43;101672.47;;;27.26;55.16
63006;BME280;53704;52.532;6.426;2023-06-10T10:21:15;101673.88;;;27.68;56.60
63006;BME280;53704;52.532;6.426;2023-06-10T10:26:21;101669.41;;;28.76;54.32
63006;BME280;53704;52.532;6.426;2023-06-10T10:28:53;101663.09;;;28.80;53.70
63006;BME280;53704;52.532;6.426;2023-06-10T10:31:23;101656.84;;;28.03;51.89
63006;BME280;53704;52.532;6.426;2023-06-10T10:34:01;101654.44;;;28.39;50.97
63006;BME280;53704;52.532;6.426;2023-06-10T10:36:27;101652.16;;;28.04;49.90
63006;BME280;53704;52.532;6.426;2023-06-10T10:38:54;101648.59;;;28.36;48.34
63006;BME280;53704;52.532;6.426;2023-06-10T10:41:20;101654.47;;;29.19;51.20
63006;BME280;53704;52.532;6.426;2023-06-10T10:43:46;101647.47;;;29.07;48.06
63006;BME280;53704;52.532;6.426;2023-06-10T10:46:15;101649.19;;;28.10;48.27
63006;BME280;53704;52.532;6.426;2023-06-10T10:48:42;101641.72;;;28.76;46.94
63006;BME280;53704;52.532;6.426;2023-06-10T10:51:08;101653.69;;;29.29;48.45
63006;BME280;53704;52.532;6.426;2023-06-10T10:53:36;101645.16;;;28.93;47.27
63006;BME280;53704;52.532;6.426;2023-06-10T10:56:06;101643.03;;;29.74;48.82
63006;BME280;53704;52.532;6.426;2023-06-10T10:58:33;101645.75;;;29.53;47.99
63006;BME280;53704;52.532;6.426;2023-06-10T11:00:58;101653.41;;;29.26;45.86
63006;BME280;53704;52.532;6.426;2023-06-10T11:03:28;101640.88;;;29.81;45.45
63006;BME280;53704;52.532;6.426;2023-06-10T11:05:57;101648.25;;;29.60;45.96
63006;BME280;53704;52.532;6.426;2023-06-10T11:10:58;101635.34;;;30.17;43.79
63006;BME280;53704;52.532;6.426;2023-06-10T11:13:25;101642.34;;;29.36;43.16
63006;BME280;53704;52.532;6.426;2023-06-10T11:15:52;101627.03;;;30.07;42.52
63006;BME280;53704;52.532;6.426;2023-06-10T11:25:51;101616.47;;;30.50;40.46
63006;BME280;53704;52.532;6.426;2023-06-10T11:28:19;101623.69;;;30.20;39.72
63006;BME280;53704;52.532;6.426;2023-06-10T11:30:46;101625.38;;;30.57;40.37
63006;BME280;53704;52.532;6.426;2023-06-10T11:33:16;101614.47;;;30.97;40.49
63006;BME280;53704;52.532;6.426;2023-06-10T11:35:42;101614.84;;;30.39;36.50
63006;BME280;53704;52.532;6.426;2023-06-10T11:38:08;101615.56;;;31.01;39.61
63006;BME280;53704;52.532;6.426;2023-06-10T11:40:34;101613.13;;;30.69;36.06
63006;BME280;53704;52.532;6.426;2023-06-10T11:43:00;101618.19;;;30.46;36.30
63006;BME280;53704;52.532;6.426;2023-06-10T11:45:26;101613.34;;;31.08;38.56
63006;BME280;53704;52.532;6.426;2023-06-10T11:47:59;101610.88;;;30.76;37.79
63006;BME280;53704;52.532;6.426;2023-06-10T11:50:32;101614.25;;;30.21;36.12
63006;BME280;53704;52.532;6.426;2023-06-10T11:52:57;101619.25;;;30.19;36.77
63006;BME280;53704;52.532;6.426;2023-06-10T11:55:25;101605.91;;;30.67;38.02
63006;BME280;53704;52.532;6.426;2023-06-10T11:57:51;101607.00;;;30.77;37.74
63006;BME280;53704;52.532;6.426;2023-06-10T12:00:23;101610.56;;;30.98;35.70
63006;BME280;53704;52.532;6.426;2023-06-10T12:02:57;101612.56;;;31.52;36.18
63006;BME280;53704;52.532;6.426;2023-06-10T12:05:23;101610.91;;;31.51;35.91
63006;BME280;53704;52.532;6.426;2023-06-10T12:07:48;101615.31;;;30.82;35.60
63006;BME280;53704;52.532;6.426;2023-06-10T12:10:14;101608.16;;;31.56;36.38
63006;BME280;53704;52.532;6.426;2023-06-10T12:12:39;101607.00;;;30.72;35.61
63006;BME280;53704;52.532;6.426;2023-06-10T12:15:06;101603.69;;;30.59;37.33
63006;BME280;53704;52.532;6.426;2023-06-10T12:19:59;101609.66;;;31.18;37.09
63006;BME280;53704;52.532;6.426;2023-06-10T12:22:25;101592.56;;;30.70;33.64
63006;BME280;53704;52.532;6.426;2023-06-10T12:25:05;101593.59;;;31.05;33.20
63006;BME280;53704;52.532;6.426;2023-06-10T12:27:33;101602.94;;;31.34;34.99
63006;BME280;53704;52.532;6.426;2023-06-10T12:30:00;101600.84;;;31.00;33.20
63006;BME280;53704;52.532;6.426;2023-06-10T12:32:44;101596.13;;;31.61;33.39
63006;BME280;53704;52.532;6.426;2023-06-10T12:35:11;101595.59;;;30.89;34.76
63006;BME280;53704;52.532;6.426;2023-06-10T12:38:02;101584.75;;;31.58;33.18
63006;BME280;53704;52.532;6.426;2023-06-10T12:40:37;101594.69;;;32.08;33.61
63006;BME280;53704;52.532;6.426;2023-06-10T12:43:05;101583.94;;;31.47;32.73
63006;BME280;53704;52.532;6.426;2023-06-10T12:45:36;101582.28;;;31.41;29.76
63006;BME280;53704;52.532;6.426;2023-06-10T12:50:32;101580.31;;;31.96;29.76
63006;BME280;53704;52.532;6.426;2023-06-10T12:52:57;101583.53;;;31.74;30.02
63006;BME280;53704;52.532;6.426;2023-06-10T12:55:22;101580.28;;;31.01;29.06
63006;BME280;53704;52.532;6.426;2023-06-10T12:57:49;101573.91;;;31.51;29.33
63006;BME280;53704;52.532;6.426;2023-06-10T13:00:15;101580.50;;;32.10;28.56
63006;BME280;53704;52.532;6.426;2023-06-10T13:02:41;101565.53;;;32.01;30.76